Cal Nev Ari, Nevada
Current Conditions -  °F | °C
As of 10:55 AM on Friday 24 Oct 2014 (Local Time) from KIFP Reporting Station
Clear Clear  
Wind Chill: 81°   Ceiling: Unl
Heat Index: 81°   Visibility: 10mi
Dew Point: 41°   Wind: 0mph
Humidity: 24%   Direction: NA
Pressure: 30.06"   Gusts: NA
Location:  35.46°N, 114.92°W
Report Text: KIFP 241755Z AUTO 00000KT 10SM CLR 27/05 A3006 RMK AO2 PWINO
Loading
Personal Weather Stations






























Interactive Weather Map
Tropical Storm Tracking
New forecast layout! Learn more

10-Day Weather Forecast

Advertisements
Track Severe Weather on mobile